createdAt,value
2022-11-22T00:00:05.000Z,94685
2022-11-22T00:05:05.000Z,94698
2022-11-22T00:10:05.000Z,94712
2022-11-22T00:15:05.000Z,94711
2022-11-22T00:20:05.000Z,94706
2022-11-22T00:25:05.000Z,94704
2022-11-22T00:30:05.000Z,94704
2022-11-22T00:35:05.000Z,94697
2022-11-22T00:40:05.000Z,94713
2022-11-22T00:45:05.000Z,94724
2022-11-22T00:50:05.000Z,94729
2022-11-22T00:55:05.000Z,94721
2022-11-22T01:00:05.000Z,94727
2022-11-22T01:05:05.000Z,94718
2022-11-22T01:10:05.000Z,94722
2022-11-22T01:15:05.000Z,94735
2022-11-22T01:20:05.000Z,94726
2022-11-22T01:25:05.000Z,94733
2022-11-22T01:30:05.000Z,94738
2022-11-22T01:35:05.000Z,94748
2022-11-22T01:40:05.000Z,94746
2022-11-22T01:45:05.000Z,94753
2022-11-22T01:50:05.000Z,94756
2022-11-22T01:55:05.000Z,94755
2022-11-22T02:00:05.000Z,94748
2022-11-22T02:05:05.000Z,94753
2022-11-22T02:10:05.000Z,94750
2022-11-22T02:15:05.000Z,94741
2022-11-22T02:20:05.000Z,94756
2022-11-22T02:25:05.000Z,94751
2022-11-22T02:30:05.000Z,94755
2022-11-22T02:35:05.000Z,94762
2022-11-22T02:40:05.000Z,94758
2022-11-22T02:45:05.000Z,94756
2022-11-22T02:50:05.000Z,94755
2022-11-22T02:55:05.000Z,94764
2022-11-22T03:00:05.000Z,94761
2022-11-22T03:05:05.000Z,94758
2022-11-22T03:10:05.000Z,94768
2022-11-22T03:15:05.000Z,94760
2022-11-22T03:20:05.000Z,94762
2022-11-22T03:25:05.000Z,94768
2022-11-22T03:30:05.000Z,94762
2022-11-22T03:35:05.000Z,94766
2022-11-22T03:40:05.000Z,94769
2022-11-22T03:45:05.000Z,94767
2022-11-22T03:50:05.000Z,94774
2022-11-22T03:55:05.000Z,94785
2022-11-22T04:00:05.000Z,94777
2022-11-22T04:05:05.000Z,94780
2022-11-22T04:10:05.000Z,94777
2022-11-22T04:15:05.000Z,94777
2022-11-22T04:20:05.000Z,94786
2022-11-22T04:25:05.000Z,94781
2022-11-22T04:30:05.000Z,94775
2022-11-22T04:35:05.000Z,94785
2022-11-22T04:40:05.000Z,94790
2022-11-22T04:45:05.000Z,94800
2022-11-22T04:50:05.000Z,94813
2022-11-22T04:55:05.000Z,94790
2022-11-22T05:00:05.000Z,94811
2022-11-22T05:05:05.000Z,94807
2022-11-22T05:10:05.000Z,94809
2022-11-22T05:15:05.000Z,94816
2022-11-22T05:20:05.000Z,94818
2022-11-22T05:25:05.000Z,94831
2022-11-22T05:30:05.000Z,94838
2022-11-22T05:35:05.000Z,94844
2022-11-22T05:40:05.000Z,94850
2022-11-22T05:45:05.000Z,94846
2022-11-22T05:50:05.000Z,94841
2022-11-22T05:55:05.000Z,94851
2022-11-22T06:00:05.000Z,94862
2022-11-22T06:05:05.000Z,94864
2022-11-22T06:10:05.000Z,94864
2022-11-22T06:15:05.000Z,94866
2022-11-22T06:20:05.000Z,94883
2022-11-22T06:25:05.000Z,94878
2022-11-22T06:30:05.000Z,94877
2022-11-22T06:35:05.000Z,94893
2022-11-22T06:40:05.000Z,94904
2022-11-22T06:45:05.000Z,94915
2022-11-22T06:50:05.000Z,94909
2022-11-22T06:55:05.000Z,94917
2022-11-22T07:00:05.000Z,94932
2022-11-22T07:05:05.000Z,94932
2022-11-22T07:10:05.000Z,94941
2022-11-22T07:15:05.000Z,94946
2022-11-22T07:20:05.000Z,94943
2022-11-22T07:25:05.000Z,94941
2022-11-22T07:30:05.000Z,94945
2022-11-22T07:35:05.000Z,94944
2022-11-22T07:40:05.000Z,94966
2022-11-22T07:45:05.000Z,94973
2022-11-22T07:50:05.000Z,94988
2022-11-22T07:55:05.000Z,94988
2022-11-22T08:00:05.000Z,94991
2022-11-22T08:05:05.000Z,94987
2022-11-22T08:10:05.000Z,94986
2022-11-22T08:15:05.000Z,94972
2022-11-22T08:20:05.000Z,94961
2022-11-22T08:25:05.000Z,94971
2022-11-22T08:30:05.000Z,94983
2022-11-22T08:35:05.000Z,94972
2022-11-22T08:40:05.000Z,94970
2022-11-22T08:45:05.000Z,94969
2022-11-22T08:50:05.000Z,94963
2022-11-22T08:55:05.000Z,94969
2022-11-22T09:00:05.000Z,94974
2022-11-22T09:05:05.000Z,94980
2022-11-22T09:10:05.000Z,94979
2022-11-22T09:15:05.000Z,94984
2022-11-22T09:20:05.000Z,94996
2022-11-22T09:25:05.000Z,94986
2022-11-22T09:30:05.000Z,94987
2022-11-22T09:35:05.000Z,94996
2022-11-22T09:40:05.000Z,94990
2022-11-22T09:45:05.000Z,94994
2022-11-22T09:50:05.000Z,95005
2022-11-22T09:55:05.000Z,95016
2022-11-22T10:00:05.000Z,95015
2022-11-22T10:05:05.000Z,95010
2022-11-22T10:10:05.000Z,95026
2022-11-22T10:15:05.000Z,94994
2022-11-22T10:20:05.000Z,95014
2022-11-22T10:25:05.000Z,95013
2022-11-22T10:30:05.000Z,95008
2022-11-22T10:35:05.000Z,95022
2022-11-22T10:40:05.000Z,95015
2022-11-22T10:45:05.000Z,95016
2022-11-22T10:50:05.000Z,95014
2022-11-22T10:55:05.000Z,95012
2022-11-22T11:00:05.000Z,95015
2022-11-22T11:05:05.000Z,95020
2022-11-22T11:10:05.000Z,95022
2022-11-22T11:15:05.000Z,95018
2022-11-22T11:20:05.000Z,95016
2022-11-22T11:25:05.000Z,95015
2022-11-22T11:30:05.000Z,95000
2022-11-22T11:35:05.000Z,95001
2022-11-22T11:40:05.000Z,94994
2022-11-22T11:45:05.000Z,94991
2022-11-22T11:50:05.000Z,94989
2022-11-22T11:55:05.000Z,94981
2022-11-22T12:00:05.000Z,94978
2022-11-22T12:05:05.000Z,94982
2022-11-22T12:10:05.000Z,94978
2022-11-22T12:15:05.000Z,94970
2022-11-22T12:20:05.000Z,94973
2022-11-22T12:25:05.000Z,94973
2022-11-22T12:48:50.000Z,94954
2022-11-22T12:50:05.000Z,94954
2022-11-22T12:55:05.000Z,94959
2022-11-22T13:00:05.000Z,94961
2022-11-22T13:05:05.000Z,94954
2022-11-22T13:10:05.000Z,94958
2022-11-22T13:15:05.000Z,94958
2022-11-22T13:20:05.000Z,94948
2022-11-22T13:25:05.000Z,94962
2022-11-22T13:30:05.000Z,94968
2022-11-22T13:35:05.000Z,94956
2022-11-22T13:40:05.000Z,94957
2022-11-22T13:45:05.000Z,94956
2022-11-22T13:50:05.000Z,94968
2022-11-22T13:55:05.000Z,94962
2022-11-22T14:00:05.000Z,94982
2022-11-22T14:05:05.000Z,94972
2022-11-22T14:10:05.000Z,94978
2022-11-22T14:15:05.000Z,94994
2022-11-22T14:20:05.000Z,94993
2022-11-22T14:25:05.000Z,94990
2022-11-22T14:30:05.000Z,94997
2022-11-22T14:35:05.000Z,94987
2022-11-22T14:40:05.000Z,94989
2022-11-22T14:45:05.000Z,95004
2022-11-22T14:50:05.000Z,94997
2022-11-22T14:55:05.000Z,94999
2022-11-22T15:00:05.000Z,94995
2022-11-22T15:05:05.000Z,94996
2022-11-22T15:10:05.000Z,95010
2022-11-22T15:57:20.000Z,95054
2022-11-22T16:00:05.000Z,95060
2022-11-22T16:05:05.000Z,95080
2022-11-22T16:10:05.000Z,95080
2022-11-22T16:15:05.000Z,95094
2022-11-22T16:20:05.000Z,95098
2022-11-22T16:25:05.000Z,95112
2022-11-22T16:30:05.000Z,95110
2022-11-22T16:35:05.000Z,95099
2022-11-22T16:40:05.000Z,95108
2022-11-22T16:45:05.000Z,95116
2022-11-22T16:50:05.000Z,95114
2022-11-22T16:55:05.000Z,95106
2022-11-22T17:00:05.000Z,95118
2022-11-22T17:05:05.000Z,95122
2022-11-22T17:10:05.000Z,95132
2022-11-22T17:15:05.000Z,95131
2022-11-22T17:20:05.000Z,95136
2022-11-22T17:25:05.000Z,95153
2022-11-22T17:30:05.000Z,95164
2022-11-22T17:35:05.000Z,95163
2022-11-22T17:40:05.000Z,95166
2022-11-22T17:45:05.000Z,95164
2022-11-22T17:50:05.000Z,95169
2022-11-22T17:55:05.000Z,95167
2022-11-22T18:00:05.000Z,95174
2022-11-22T18:05:05.000Z,95170
2022-11-22T18:10:05.000Z,95180
2022-11-22T18:15:05.000Z,95170
2022-11-22T18:20:05.000Z,95176
2022-11-22T18:25:05.000Z,95183
2022-11-22T18:30:05.000Z,95175
2022-11-22T18:35:05.000Z,95175
2022-11-22T18:40:05.000Z,95184
2022-11-22T18:45:05.000Z,95183
2022-11-22T18:50:05.000Z,95201
2022-11-22T18:55:05.000Z,95203
2022-11-22T19:00:05.000Z,95202
2022-11-22T19:05:05.000Z,95209
2022-11-22T19:10:05.000Z,95211
2022-11-22T19:15:05.000Z,95210
2022-11-22T19:20:05.000Z,95204
2022-11-22T19:25:05.000Z,95205
2022-11-22T19:30:05.000Z,95217
2022-11-22T19:35:05.000Z,95214
2022-11-22T19:40:05.000Z,95217
2022-11-22T19:45:05.000Z,95220
2022-11-22T19:50:05.000Z,95218
2022-11-22T19:55:05.000Z,95220
2022-11-22T20:00:06.000Z,95212
2022-11-22T20:05:06.000Z,95227
2022-11-22T20:10:06.000Z,95229
2022-11-22T20:15:06.000Z,95221
2022-11-22T20:20:06.000Z,95219
2022-11-22T20:25:06.000Z,95228
2022-11-22T20:30:06.000Z,95225
2022-11-22T20:35:06.000Z,95232
2022-11-22T20:40:06.000Z,95237
2022-11-22T20:45:06.000Z,95236
2022-11-22T20:50:06.000Z,95237
2022-11-22T20:55:06.000Z,95244
2022-11-22T21:00:06.000Z,95246
2022-11-22T21:05:06.000Z,95250
2022-11-22T21:10:06.000Z,95255
2022-11-22T21:15:06.000Z,95255
2022-11-22T21:20:06.000Z,95267
2022-11-22T21:25:06.000Z,95275
2022-11-22T21:30:06.000Z,95270
2022-11-22T21:35:06.000Z,95267
2022-11-22T21:40:06.000Z,95280
2022-11-22T21:45:06.000Z,95282
2022-11-22T21:50:06.000Z,95294
2022-11-22T21:55:06.000Z,95288
2022-11-22T22:00:06.000Z,95286
2022-11-22T22:05:06.000Z,95286
2022-11-22T22:10:06.000Z,95288
2022-11-22T22:15:06.000Z,95285
2022-11-22T22:20:06.000Z,95288
2022-11-22T22:25:06.000Z,95297
2022-11-22T22:30:06.000Z,95286
2022-11-22T22:35:06.000Z,95282
2022-11-22T22:40:06.000Z,95294
2022-11-22T22:45:06.000Z,95288
2022-11-22T22:50:06.000Z,95300
2022-11-22T22:55:06.000Z,95301
2022-11-22T23:00:06.000Z,95299
2022-11-22T23:05:06.000Z,95294
2022-11-22T23:10:06.000Z,95302
2022-11-22T23:15:06.000Z,95304
2022-11-22T23:20:06.000Z,95286
2022-11-22T23:25:06.000Z,95301
2022-11-22T23:30:06.000Z,95294
2022-11-22T23:35:06.000Z,95304
2022-11-22T23:40:06.000Z,95295
2022-11-22T23:45:06.000Z,95283
2022-11-22T23:50:06.000Z,95292
2022-11-22T23:55:06.000Z,95300
